sensor_id;sensor_type;location;lat;lon;timestamp;P1;durP1;ratioP1;P2;durP2;ratioP2
31760;SDS011;18335;51.486;7.562;2024-02-21T00:00:22;25.13;;;9.07;;
31760;SDS011;18335;51.486;7.562;2024-02-21T00:02:50;24.08;;;9.98;;
31760;SDS011;18335;51.486;7.562;2024-02-21T00:05:17;27.88;;;9.90;;
31760;SDS011;18335;51.486;7.562;2024-02-21T00:07:43;30.33;;;10.45;;
31760;SDS011;18335;51.486;7.562;2024-02-21T00:10:11;20.20;;;9.27;;
31760;SDS011;18335;51.486;7.562;2024-02-21T00:12:38;22.30;;;8.75;;
31760;SDS011;18335;51.486;7.562;2024-02-21T00:15:05;25.90;;;10.05;;
31760;SDS011;18335;51.486;7.562;2024-02-21T00:17:33;29.65;;;10.73;;
31760;SDS011;18335;51.486;7.562;2024-02-21T00:19:59;25.58;;;9.88;;
31760;SDS011;18335;51.486;7.562;2024-02-21T00:22:26;25.58;;;9.60;;
31760;SDS011;18335;51.486;7.562;2024-02-21T00:24:54;28.10;;;10.02;;
31760;SDS011;18335;51.486;7.562;2024-02-21T00:27:22;23.80;;;9.43;;
31760;SDS011;18335;51.486;7.562;2024-02-21T00:29:49;28.40;;;10.05;;
31760;SDS011;18335;51.486;7.562;2024-02-21T00:32:15;27.60;;;9.82;;
31760;SDS011;18335;51.486;7.562;2024-02-21T00:34:42;23.58;;;10.38;;
31760;SDS011;18335;51.486;7.562;2024-02-21T00:37:08;23.90;;;9.30;;
31760;SDS011;18335;51.486;7.562;2024-02-21T00:39:35;31.30;;;11.82;;
31760;SDS011;18335;51.486;7.562;2024-02-21T00:42:02;28.20;;;9.35;;
31760;SDS011;18335;51.486;7.562;2024-02-21T00:44:30;20.35;;;8.73;;
31760;SDS011;18335;51.486;7.562;2024-02-21T00:46:57;25.95;;;9.70;;
31760;SDS011;18335;51.486;7.562;2024-02-21T00:49:24;26.92;;;10.02;;
31760;SDS011;18335;51.486;7.562;2024-02-21T00:51:51;24.40;;;9.98;;
31760;SDS011;18335;51.486;7.562;2024-02-21T00:54:17;24.38;;;10.27;;
31760;SDS011;18335;51.486;7.562;2024-02-21T00:56:44;23.60;;;10.25;;
31760;SDS011;18335;51.486;7.562;2024-02-21T00:59:11;24.88;;;9.55;;
31760;SDS011;18335;51.486;7.562;2024-02-21T01:01:39;29.45;;;9.93;;
31760;SDS011;18335;51.486;7.562;2024-02-21T01:04:07;27.27;;;10.80;;
31760;SDS011;18335;51.486;7.562;2024-02-21T01:06:34;19.77;;;8.63;;
31760;SDS011;18335;51.486;7.562;2024-02-21T01:09:01;24.40;;;9.85;;
31760;SDS011;18335;51.486;7.562;2024-02-21T01:11:28;27.42;;;9.50;;
31760;SDS011;18335;51.486;7.562;2024-02-21T01:13:55;22.83;;;9.70;;
31760;SDS011;18335;51.486;7.562;2024-02-21T01:16:21;29.58;;;9.35;;
31760;SDS011;18335;51.486;7.562;2024-02-21T01:18:50;22.48;;;9.73;;
31760;SDS011;18335;51.486;7.562;2024-02-21T01:21:16;21.25;;;9.18;;
31760;SDS011;18335;51.486;7.562;2024-02-21T01:23:43;26.17;;;10.10;;
31760;SDS011;18335;51.486;7.562;2024-02-21T01:26:09;24.63;;;9.65;;
31760;SDS011;18335;51.486;7.562;2024-02-21T01:28:39;21.30;;;8.63;;
31760;SDS011;18335;51.486;7.562;2024-02-21T01:31:06;23.33;;;9.63;;
31760;SDS011;18335;51.486;7.562;2024-02-21T01:33:32;24.38;;;8.80;;
31760;SDS011;18335;51.486;7.562;2024-02-21T01:36:02;27.65;;;9.75;;
31760;SDS011;18335;51.486;7.562;2024-02-21T01:38:29;24.73;;;9.55;;
31760;SDS011;18335;51.486;7.562;2024-02-21T01:40:57;24.02;;;10.43;;
31760;SDS011;18335;51.486;7.562;2024-02-21T01:43:23;20.92;;;8.60;;
31760;SDS011;18335;51.486;7.562;2024-02-21T01:45:51;24.77;;;9.23;;
31760;SDS011;18335;51.486;7.562;2024-02-21T01:48:20;25.52;;;10.02;;
31760;SDS011;18335;51.486;7.562;2024-02-21T01:50:48;26.05;;;9.98;;
31760;SDS011;18335;51.486;7.562;2024-02-21T01:53:18;26.75;;;12.00;;
31760;SDS011;18335;51.486;7.562;2024-02-21T01:55:46;21.13;;;8.57;;
31760;SDS011;18335;51.486;7.562;2024-02-21T01:58:13;25.13;;;9.68;;
31760;SDS011;18335;51.486;7.562;2024-02-21T02:00:40;24.90;;;9.93;;
31760;SDS011;18335;51.486;7.562;2024-02-21T02:03:09;28.52;;;10.57;;
31760;SDS011;18335;51.486;7.562;2024-02-21T02:05:42;24.42;;;9.68;;
31760;SDS011;18335;51.486;7.562;2024-02-21T02:08:09;19.30;;;8.40;;
31760;SDS011;18335;51.486;7.562;2024-02-21T02:10:38;32.80;;;10.85;;
31760;SDS011;18335;51.486;7.562;2024-02-21T02:13:06;24.08;;;9.85;;
31760;SDS011;18335;51.486;7.562;2024-02-21T02:15:39;24.10;;;9.13;;
31760;SDS011;18335;51.486;7.562;2024-02-21T02:18:07;25.48;;;9.30;;
31760;SDS011;18335;51.486;7.562;2024-02-21T02:20:34;25.25;;;9.43;;
31760;SDS011;18335;51.486;7.562;2024-02-21T02:23:01;31.08;;;10.85;;
31760;SDS011;18335;51.486;7.562;2024-02-21T02:25:34;19.63;;;8.55;;
31760;SDS011;18335;51.486;7.562;2024-02-21T02:28:01;18.23;;;9.77;;
31760;SDS011;18335;51.486;7.562;2024-02-21T02:30:28;23.92;;;8.02;;
31760;SDS011;18335;51.486;7.562;2024-02-21T02:32:55;27.67;;;9.07;;
31760;SDS011;18335;51.486;7.562;2024-02-21T02:35:22;26.00;;;10.40;;
31760;SDS011;18335;51.486;7.562;2024-02-21T02:37:48;25.73;;;8.77;;
31760;SDS011;18335;51.486;7.562;2024-02-21T02:40:15;18.90;;;8.30;;
31760;SDS011;18335;51.486;7.562;2024-02-21T02:42:44;20.63;;;8.60;;
31760;SDS011;18335;51.486;7.562;2024-02-21T02:45:10;25.02;;;9.77;;
31760;SDS011;18335;51.486;7.562;2024-02-21T02:47:39;23.05;;;9.25;;
31760;SDS011;18335;51.486;7.562;2024-02-21T02:50:06;24.50;;;9.57;;
31760;SDS011;18335;51.486;7.562;2024-02-21T02:52:33;28.13;;;13.23;;
31760;SDS011;18335;51.486;7.562;2024-02-21T02:55:00;17.60;;;9.05;;
31760;SDS011;18335;51.486;7.562;2024-02-21T02:57:27;24.90;;;8.68;;
31760;SDS011;18335;51.486;7.562;2024-02-21T02:59:55;30.77;;;9.80;;
31760;SDS011;18335;51.486;7.562;2024-02-21T03:02:21;19.73;;;9.23;;
31760;SDS011;18335;51.486;7.562;2024-02-21T03:04:48;29.15;;;9.98;;
31760;SDS011;18335;51.486;7.562;2024-02-21T03:07:15;21.92;;;8.98;;
31760;SDS011;18335;51.486;7.562;2024-02-21T03:09:42;24.42;;;9.60;;
31760;SDS011;18335;51.486;7.562;2024-02-21T03:12:09;23.45;;;10.65;;
31760;SDS011;18335;51.486;7.562;2024-02-21T03:14:35;24.30;;;10.07;;
31760;SDS011;18335;51.486;7.562;2024-02-21T03:17:03;27.00;;;10.25;;
31760;SDS011;18335;51.486;7.562;2024-02-21T03:19:31;27.77;;;13.40;;
31760;SDS011;18335;51.486;7.562;2024-02-21T03:21:58;26.65;;;9.65;;
31760;SDS011;18335;51.486;7.562;2024-02-21T03:24:24;28.17;;;8.20;;
31760;SDS011;18335;51.486;7.562;2024-02-21T03:26:51;24.02;;;9.15;;
31760;SDS011;18335;51.486;7.562;2024-02-21T03:29:18;23.73;;;9.05;;
31760;SDS011;18335;51.486;7.562;2024-02-21T03:31:44;22.17;;;8.90;;
31760;SDS011;18335;51.486;7.562;2024-02-21T03:34:12;24.60;;;9.02;;
31760;SDS011;18335;51.486;7.562;2024-02-21T03:36:39;22.67;;;9.23;;
31760;SDS011;18335;51.486;7.562;2024-02-21T03:39:06;23.23;;;9.18;;
31760;SDS011;18335;51.486;7.562;2024-02-21T03:41:33;27.33;;;8.93;;
31760;SDS011;18335;51.486;7.562;2024-02-21T03:43:59;30.65;;;9.02;;
31760;SDS011;18335;51.486;7.562;2024-02-21T03:46:26;22.25;;;8.15;;
31760;SDS011;18335;51.486;7.562;2024-02-21T03:48:53;25.60;;;9.55;;
31760;SDS011;18335;51.486;7.562;2024-02-21T03:51:21;24.15;;;9.15;;
31760;SDS011;18335;51.486;7.562;2024-02-21T03:53:48;23.42;;;9.38;;
31760;SDS011;18335;51.486;7.562;2024-02-21T03:56:15;19.95;;;8.05;;
31760;SDS011;18335;51.486;7.562;2024-02-21T03:58:41;21.23;;;9.60;;
31760;SDS011;18335;51.486;7.562;2024-02-21T04:01:08;23.52;;;9.18;;
31760;SDS011;18335;51.486;7.562;2024-02-21T04:03:34;22.52;;;9.20;;
31760;SDS011;18335;51.486;7.562;2024-02-21T04:06:01;22.17;;;9.02;;
31760;SDS011;18335;51.486;7.562;2024-02-21T04:08:29;28.48;;;8.13;;
31760;SDS011;18335;51.486;7.562;2024-02-21T04:10:56;20.80;;;7.78;;
31760;SDS011;18335;51.486;7.562;2024-02-21T04:13:23;24.30;;;7.95;;
31760;SDS011;18335;51.486;7.562;2024-02-21T04:15:51;16.10;;;7.22;;
31760;SDS011;18335;51.486;7.562;2024-02-21T04:18:17;20.02;;;8.13;;
31760;SDS011;18335;51.486;7.562;2024-02-21T04:20:44;25.75;;;8.32;;
31760;SDS011;18335;51.486;7.562;2024-02-21T04:23:11;28.38;;;8.20;;
31760;SDS011;18335;51.486;7.562;2024-02-21T04:25:39;23.60;;;8.75;;
31760;SDS011;18335;51.486;7.562;2024-02-21T04:28:05;24.50;;;8.52;;
31760;SDS011;18335;51.486;7.562;2024-02-21T04:30:32;22.73;;;9.35;;
31760;SDS011;18335;51.486;7.562;2024-02-21T04:32:59;22.58;;;8.13;;
31760;SDS011;18335;51.486;7.562;2024-02-21T04:35:26;20.70;;;8.68;;
31760;SDS011;18335;51.486;7.562;2024-02-21T04:37:52;20.42;;;7.90;;
31760;SDS011;18335;51.486;7.562;2024-02-21T04:40:19;21.70;;;8.13;;
31760;SDS011;18335;51.486;7.562;2024-02-21T04:42:47;20.48;;;8.15;;
31760;SDS011;18335;51.486;7.562;2024-02-21T04:45:14;25.00;;;8.18;;
31760;SDS011;18335;51.486;7.562;2024-02-21T04:47:42;21.65;;;8.95;;
31760;SDS011;18335;51.486;7.562;2024-02-21T04:50:09;18.45;;;8.05;;
31760;SDS011;18335;51.486;7.562;2024-02-21T04:52:36;18.88;;;7.43;;
31760;SDS011;18335;51.486;7.562;2024-02-21T04:55:03;25.50;;;9.10;;
31760;SDS011;18335;51.486;7.562;2024-02-21T04:57:30;17.85;;;7.50;;
31760;SDS011;18335;51.486;7.562;2024-02-21T04:59:58;16.73;;;7.00;;
31760;SDS011;18335;51.486;7.562;2024-02-21T05:02:25;22.38;;;9.07;;
31760;SDS011;18335;51.486;7.562;2024-02-21T05:04:52;21.30;;;6.93;;
31760;SDS011;18335;51.486;7.562;2024-02-21T05:07:19;17.95;;;7.85;;
31760;SDS011;18335;51.486;7.562;2024-02-21T05:09:45;27.30;;;8.85;;
31760;SDS011;18335;51.486;7.562;2024-02-21T05:12:12;19.25;;;7.22;;
31760;SDS011;18335;51.486;7.562;2024-02-21T05:14:39;19.67;;;7.47;;
31760;SDS011;18335;51.486;7.562;2024-02-21T05:17:07;21.70;;;8.57;;
31760;SDS011;18335;51.486;7.562;2024-02-21T05:19:33;24.55;;;8.75;;
31760;SDS011;18335;51.486;7.562;2024-02-21T05:22:00;22.70;;;9.00;;
31760;SDS011;18335;51.486;7.562;2024-02-21T05:24:26;21.52;;;8.13;;
31760;SDS011;18335;51.486;7.562;2024-02-21T05:26:55;17.60;;;6.88;;
31760;SDS011;18335;51.486;7.562;2024-02-21T05:29:21;18.48;;;7.18;;
31760;SDS011;18335;51.486;7.562;2024-02-21T05:31:54;16.52;;;7.00;;
31760;SDS011;18335;51.486;7.562;2024-02-21T05:34:24;20.20;;;6.22;;
31760;SDS011;18335;51.486;7.562;2024-02-21T05:36:51;21.70;;;8.15;;
31760;SDS011;18335;51.486;7.562;2024-02-21T05:39:18;29.48;;;6.90;;
31760;SDS011;18335;51.486;7.562;2024-02-21T05:41:47;19.17;;;7.40;;
31760;SDS011;18335;51.486;7.562;2024-02-21T05:44:15;19.80;;;6.70;;
31760;SDS011;18335;51.486;7.562;2024-02-21T05:46:42;15.60;;;7.82;;
31760;SDS011;18335;51.486;7.562;2024-02-21T05:49:08;18.27;;;6.65;;
31760;SDS011;18335;51.486;7.562;2024-02-21T05:51:36;17.27;;;6.38;;
31760;SDS011;18335;51.486;7.562;2024-02-21T05:54:03;17.92;;;7.35;;
31760;SDS011;18335;51.486;7.562;2024-02-21T05:56:30;19.17;;;5.88;;
31760;SDS011;18335;51.486;7.562;2024-02-21T05:58:56;16.05;;;6.68;;
31760;SDS011;18335;51.486;7.562;2024-02-21T06:01:23;15.80;;;6.40;;
31760;SDS011;18335;51.486;7.562;2024-02-21T06:03:50;15.63;;;6.32;;
31760;SDS011;18335;51.486;7.562;2024-02-21T06:06:17;17.17;;;6.28;;
31760;SDS011;18335;51.486;7.562;2024-02-21T06:08:45;18.92;;;5.70;;
31760;SDS011;18335;51.486;7.562;2024-02-21T06:11:12;18.35;;;6.50;;
31760;SDS011;18335;51.486;7.562;2024-02-21T06:13:40;21.40;;;7.03;;
31760;SDS011;18335;51.486;7.562;2024-02-21T06:16:07;20.67;;;6.90;;
31760;SDS011;18335;51.486;7.562;2024-02-21T06:18:35;17.30;;;7.78;;
31760;SDS011;18335;51.486;7.562;2024-02-21T06:21:02;14.55;;;6.53;;
31760;SDS011;18335;51.486;7.562;2024-02-21T06:23:29;24.98;;;6.65;;
31760;SDS011;18335;51.486;7.562;2024-02-21T06:25:57;13.65;;;5.47;;
31760;SDS011;18335;51.486;7.562;2024-02-21T06:28:23;18.30;;;6.18;;
31760;SDS011;18335;51.486;7.562;2024-02-21T06:30:50;16.42;;;6.60;;
31760;SDS011;18335;51.486;7.562;2024-02-21T06:33:17;15.80;;;5.60;;
31760;SDS011;18335;51.486;7.562;2024-02-21T06:35:47;15.85;;;5.60;;
31760;SDS011;18335;51.486;7.562;2024-02-21T06:38:17;17.42;;;7.05;;
31760;SDS011;18335;51.486;7.562;2024-02-21T06:40:44;19.25;;;8.00;;
31760;SDS011;18335;51.486;7.562;2024-02-21T06:43:16;20.13;;;5.47;;
31760;SDS011;18335;51.486;7.562;2024-02-21T06:45:44;17.50;;;5.50;;
31760;SDS011;18335;51.486;7.562;2024-02-21T06:48:12;14.90;;;5.22;;
31760;SDS011;18335;51.486;7.562;2024-02-21T06:50:39;16.80;;;5.00;;
31760;SDS011;18335;51.486;7.562;2024-02-21T06:53:07;15.20;;;4.97;;
31760;SDS011;18335;51.486;7.562;2024-02-21T06:55:33;11.20;;;4.85;;
31760;SDS011;18335;51.486;7.562;2024-02-21T06:58:00;14.10;;;4.82;;
31760;SDS011;18335;51.486;7.562;2024-02-21T07:00:29;18.90;;;5.38;;
31760;SDS011;18335;51.486;7.562;2024-02-21T07:02:56;19.08;;;6.95;;
31760;SDS011;18335;51.486;7.562;2024-02-21T07:05:23;21.98;;;6.78;;
31760;SDS011;18335;51.486;7.562;2024-02-21T07:07:50;16.02;;;6.90;;
31760;SDS011;18335;51.486;7.562;2024-02-21T07:10:16;13.18;;;4.95;;
31760;SDS011;18335;51.486;7.562;2024-02-21T07:12:43;10.60;;;4.57;;
31760;SDS011;18335;51.486;7.562;2024-02-21T07:15:10;15.65;;;5.72;;
31760;SDS011;18335;51.486;7.562;2024-02-21T07:17:38;14.68;;;5.50;;
31760;SDS011;18335;51.486;7.562;2024-02-21T07:20:05;12.63;;;4.82;;
31760;SDS011;18335;51.486;7.562;2024-02-21T07:22:33;13.93;;;4.38;;
31760;SDS011;18335;51.486;7.562;2024-02-21T07:24:59;13.82;;;4.40;;
31760;SDS011;18335;51.486;7.562;2024-02-21T07:27:26;14.07;;;4.57;;
31760;SDS011;18335;51.486;7.562;2024-02-21T07:29:56;17.15;;;5.40;;
31760;SDS011;18335;51.486;7.562;2024-02-21T07:32:23;11.00;;;4.47;;
31760;SDS011;18335;51.486;7.562;2024-02-21T07:34:51;18.45;;;5.47;;
31760;SDS011;18335;51.486;7.562;2024-02-21T07:37:17;15.93;;;5.20;;
31760;SDS011;18335;51.486;7.562;2024-02-21T07:39:44;13.70;;;5.15;;
31760;SDS011;18335;51.486;7.562;2024-02-21T07:42:10;15.20;;;5.43;;
31760;SDS011;18335;51.486;7.562;2024-02-21T07:44:37;11.07;;;4.70;;
31760;SDS011;18335;51.486;7.562;2024-02-21T07:47:04;13.05;;;4.75;;
31760;SDS011;18335;51.486;7.562;2024-02-21T07:49:32;14.38;;;4.90;;
31760;SDS011;18335;51.486;7.562;2024-02-21T07:52:01;14.88;;;5.78;;
31760;SDS011;18335;51.486;7.562;2024-02-21T07:54:28;30.75;;;7.60;;
31760;SDS011;18335;51.486;7.562;2024-02-21T07:56:55;18.42;;;5.55;;
31760;SDS011;18335;51.486;7.562;2024-02-21T07:59:21;18.10;;;4.97;;
31760;SDS011;18335;51.486;7.562;2024-02-21T08:01:48;12.98;;;4.88;;
31760;SDS011;18335;51.486;7.562;2024-02-21T08:04:15;19.77;;;5.65;;
31760;SDS011;18335;51.486;7.562;2024-02-21T08:06:41;15.70;;;6.60;;
31760;SDS011;18335;51.486;7.562;2024-02-21T08:09:10;12.40;;;4.95;;
31760;SDS011;18335;51.486;7.562;2024-02-21T08:11:36;16.55;;;5.65;;
31760;SDS011;18335;51.486;7.562;2024-02-21T08:14:03;17.08;;;5.63;;
31760;SDS011;18335;51.486;7.562;2024-02-21T08:16:30;26.42;;;7.57;;
31760;SDS011;18335;51.486;7.562;2024-02-21T08:18:56;14.85;;;5.50;;
31760;SDS011;18335;51.486;7.562;2024-02-21T08:21:25;18.00;;;6.07;;
31760;SDS011;18335;51.486;7.562;2024-02-21T08:23:51;14.18;;;5.20;;
31760;SDS011;18335;51.486;7.562;2024-02-21T08:26:20;15.77;;;5.70;;
31760;SDS011;18335;51.486;7.562;2024-02-21T08:28:47;20.02;;;6.45;;
31760;SDS011;18335;51.486;7.562;2024-02-21T08:31:18;13.02;;;5.32;;
31760;SDS011;18335;51.486;7.562;2024-02-21T08:33:45;15.35;;;5.57;;
31760;SDS011;18335;51.486;7.562;2024-02-21T08:36:16;12.57;;;5.22;;
31760;SDS011;18335;51.486;7.562;2024-02-21T08:38:44;13.55;;;6.47;;
31760;SDS011;18335;51.486;7.562;2024-02-21T08:41:11;15.18;;;5.55;;
31760;SDS011;18335;51.486;7.562;2024-02-21T08:43:39;17.20;;;5.13;;
31760;SDS011;18335;51.486;7.562;2024-02-21T08:46:06;13.00;;;4.47;;
31760;SDS011;18335;51.486;7.562;2024-02-21T08:48:32;18.20;;;5.00;;
31760;SDS011;18335;51.486;7.562;2024-02-21T08:50:59;17.15;;;5.53;;
31760;SDS011;18335;51.486;7.562;2024-02-21T08:53:26;12.05;;;4.47;;
31760;SDS011;18335;51.486;7.562;2024-02-21T08:55:52;11.55;;;4.95;;
31760;SDS011;18335;51.486;7.562;2024-02-21T08:58:19;14.35;;;4.68;;
31760;SDS011;18335;51.486;7.562;2024-02-21T09:00:50;14.63;;;4.38;;
31760;SDS011;18335;51.486;7.562;2024-02-21T09:03:17;13.38;;;4.88;;
31760;SDS011;18335;51.486;7.562;2024-02-21T09:05:45;12.75;;;4.45;;
31760;SDS011;18335;51.486;7.562;2024-02-21T09:08:11;17.60;;;5.32;;
31760;SDS011;18335;51.486;7.562;2024-02-21T09:10:39;18.55;;;6.30;;
31760;SDS011;18335;51.486;7.562;2024-02-21T09:13:06;14.35;;;5.07;;
31760;SDS011;18335;51.486;7.562;2024-02-21T09:15:33;13.82;;;6.03;;
31760;SDS011;18335;51.486;7.562;2024-02-21T09:18:02;15.23;;;5.57;;
31760;SDS011;18335;51.486;7.562;2024-02-21T09:20:29;13.40;;;5.43;;
31760;SDS011;18335;51.486;7.562;2024-02-21T09:22:56;16.38;;;6.38;;
31760;SDS011;18335;51.486;7.562;2024-02-21T09:25:23;17.98;;;6.88;;
31760;SDS011;18335;51.486;7.562;2024-02-21T09:27:49;17.77;;;7.40;;
31760;SDS011;18335;51.486;7.562;2024-02-21T09:30:17;16.77;;;7.15;;
31760;SDS011;18335;51.486;7.562;2024-02-21T09:32:44;20.75;;;8.40;;
31760;SDS011;18335;51.486;7.562;2024-02-21T09:35:12;16.50;;;7.40;;
31760;SDS011;18335;51.486;7.562;2024-02-21T09:37:39;17.27;;;7.57;;
31760;SDS011;18335;51.486;7.562;2024-02-21T09:40:06;18.98;;;9.02;;
31760;SDS011;18335;51.486;7.562;2024-02-21T09:42:36;13.07;;;6.20;;
31760;SDS011;18335;51.486;7.562;2024-02-21T09:45:04;16.00;;;6.60;;
31760;SDS011;18335;51.486;7.562;2024-02-21T09:47:40;13.38;;;6.30;;
31760;SDS011;18335;51.486;7.562;2024-02-21T09:50:17;16.85;;;6.47;;
31760;SDS011;18335;51.486;7.562;2024-02-21T09:52:46;14.65;;;6.32;;
31760;SDS011;18335;51.486;7.562;2024-02-21T09:55:14;20.10;;;5.72;;
31760;SDS011;18335;51.486;7.562;2024-02-21T09:57:43;20.95;;;8.43;;
31760;SDS011;18335;51.486;7.562;2024-02-21T10:00:19;12.52;;;6.10;;
31760;SDS011;18335;51.486;7.562;2024-02-21T10:02:47;17.60;;;4.65;;
31760;SDS011;18335;51.486;7.562;2024-02-21T10:05:15;19.38;;;5.20;;
31760;SDS011;18335;51.486;7.562;2024-02-21T10:07:44;21.15;;;4.70;;
31760;SDS011;18335;51.486;7.562;2024-02-21T10:10:10;11.63;;;4.93;;
31760;SDS011;18335;51.486;7.562;2024-02-21T10:12:47;19.45;;;5.47;;
31760;SDS011;18335;51.486;7.562;2024-02-21T10:15:19;16.02;;;4.70;;
31760;SDS011;18335;51.486;7.562;2024-02-21T10:17:46;17.55;;;5.38;;
31760;SDS011;18335;51.486;7.562;2024-02-21T10:20:13;21.15;;;5.65;;
31760;SDS011;18335;51.486;7.562;2024-02-21T10:22:41;17.92;;;5.07;;
31760;SDS011;18335;51.486;7.562;2024-02-21T10:25:10;19.75;;;6.47;;
31760;SDS011;18335;51.486;7.562;2024-02-21T10:27:37;16.88;;;5.60;;
31760;SDS011;18335;51.486;7.562;2024-02-21T10:30:07;19.17;;;5.32;;
31760;SDS011;18335;51.486;7.562;2024-02-21T10:32:48;16.88;;;5.25;;
31760;SDS011;18335;51.486;7.562;2024-02-21T10:35:24;13.77;;;4.70;;
31760;SDS011;18335;51.486;7.562;2024-02-21T10:37:52;18.60;;;5.70;;
31760;SDS011;18335;51.486;7.562;2024-02-21T10:40:22;16.83;;;5.18;;
31760;SDS011;18335;51.486;7.562;2024-02-21T10:42:50;20.38;;;5.97;;
31760;SDS011;18335;51.486;7.562;2024-02-21T10:45:25;19.85;;;4.60;;
31760;SDS011;18335;51.486;7.562;2024-02-21T10:47:59;17.52;;;4.82;;
31760;SDS011;18335;51.486;7.562;2024-02-21T10:50:32;17.58;;;4.90;;
31760;SDS011;18335;51.486;7.562;2024-02-21T10:53:09;22.05;;;6.43;;
31760;SDS011;18335;51.486;7.562;2024-02-21T10:56:00;22.13;;;8.00;;
31760;SDS011;18335;51.486;7.562;2024-02-21T10:58:33;17.20;;;6.28;;
31760;SDS011;18335;51.486;7.562;2024-02-21T11:01:00;18.40;;;5.57;;
31760;SDS011;18335;51.486;7.562;2024-02-21T11:03:29;16.60;;;4.13;;
31760;SDS011;18335;51.486;7.562;2024-02-21T11:05:56;18.05;;;6.43;;
31760;SDS011;18335;51.486;7.562;2024-02-21T11:08:24;20.92;;;5.53;;
31760;SDS011;18335;51.486;7.562;2024-02-21T11:10:57;17.67;;;6.40;;
31760;SDS011;18335;51.486;7.562;2024-02-21T11:13:30;17.58;;;6.15;;
31760;SDS011;18335;51.486;7.562;2024-02-21T11:16:05;19.92;;;6.60;;
31760;SDS011;18335;51.486;7.562;2024-02-21T11:18:34;13.70;;;6.68;;
31760;SDS011;18335;51.486;7.562;2024-02-21T11:21:01;17.70;;;6.03;;
31760;SDS011;18335;51.486;7.562;2024-02-21T11:23:28;14.70;;;6.32;;
31760;SDS011;18335;51.486;7.562;2024-02-21T11:26:04;21.95;;;7.43;;
31760;SDS011;18335;51.486;7.562;2024-02-21T11:28:32;15.55;;;5.38;;
31760;SDS011;18335;51.486;7.562;2024-02-21T11:31:08;15.52;;;5.18;;
31760;SDS011;18335;51.486;7.562;2024-02-21T11:36:02;14.20;;;5.18;;
31760;SDS011;18335;51.486;7.562;2024-02-21T11:38:30;15.23;;;5.10;;
31760;SDS011;18335;51.486;7.562;2024-02-21T11:40:56;10.98;;;4.45;;
31760;SDS011;18335;51.486;7.562;2024-02-21T11:43:25;17.15;;;5.05;;
31760;SDS011;18335;51.486;7.562;2024-02-21T11:45:58;12.18;;;4.28;;
31760;SDS011;18335;51.486;7.562;2024-02-21T11:48:25;13.45;;;4.10;;
31760;SDS011;18335;51.486;7.562;2024-02-21T11:50:52;14.63;;;5.38;;
31760;SDS011;18335;51.486;7.562;2024-02-21T11:53:21;13.35;;;4.18;;
31760;SDS011;18335;51.486;7.562;2024-02-21T11:55:47;12.38;;;3.70;;
31760;SDS011;18335;51.486;7.562;2024-02-21T11:58:15;17.25;;;3.90;;
31760;SDS011;18335;51.486;7.562;2024-02-21T12:00:43;12.07;;;4.20;;
31760;SDS011;18335;51.486;7.562;2024-02-21T12:03:10;17.50;;;4.10;;
31760;SDS011;18335;51.486;7.562;2024-02-21T12:05:37;11.18;;;4.45;;
31760;SDS011;18335;51.486;7.562;2024-02-21T12:08:03;13.52;;;4.15;;
31760;SDS011;18335;51.486;7.562;2024-02-21T12:10:30;10.88;;;4.07;;
31760;SDS011;18335;51.486;7.562;2024-02-21T12:13:05;13.57;;;3.60;;
31760;SDS011;18335;51.486;7.562;2024-02-21T12:15:32;10.93;;;4.10;;
31760;SDS011;18335;51.486;7.562;2024-02-21T12:18:01;16.73;;;3.90;;
31760;SDS011;18335;51.486;7.562;2024-02-21T12:20:27;10.30;;;3.50;;
31760;SDS011;18335;51.486;7.562;2024-02-21T12:22:55;10.07;;;3.55;;
31760;SDS011;18335;51.486;7.562;2024-02-21T12:25:24;13.35;;;3.92;;
31760;SDS011;18335;51.486;7.562;2024-02-21T12:27:51;10.30;;;3.80;;
31760;SDS011;18335;51.486;7.562;2024-02-21T12:30:18;12.70;;;4.10;;
31760;SDS011;18335;51.486;7.562;2024-02-21T12:32:45;14.23;;;4.22;;
31760;SDS011;18335;51.486;7.562;2024-02-21T12:35:15;11.70;;;3.33;;
31760;SDS011;18335;51.486;7.562;2024-02-21T12:37:42;14.07;;;3.55;;
31760;SDS011;18335;51.486;7.562;2024-02-21T12:40:09;12.10;;;4.13;;
31760;SDS011;18335;51.486;7.562;2024-02-21T12:42:38;14.15;;;3.85;;
31760;SDS011;18335;51.486;7.562;2024-02-21T12:45:05;14.10;;;4.60;;
31760;SDS011;18335;51.486;7.562;2024-02-21T12:47:33;15.13;;;3.58;;
31760;SDS011;18335;51.486;7.562;2024-02-21T12:49:59;14.05;;;5.00;;
31760;SDS011;18335;51.486;7.562;2024-02-21T12:52:29;16.50;;;4.22;;
31760;SDS011;18335;51.486;7.562;2024-02-21T12:54:56;14.30;;;4.90;;
31760;SDS011;18335;51.486;7.562;2024-02-21T12:57:24;14.82;;;4.22;;
31760;SDS011;18335;51.486;7.562;2024-02-21T12:59:51;12.23;;;3.25;;
31760;SDS011;18335;51.486;7.562;2024-02-21T13:02:18;11.70;;;3.35;;
31760;SDS011;18335;51.486;7.562;2024-02-21T13:04:45;12.63;;;3.75;;
31760;SDS011;18335;51.486;7.562;2024-02-21T13:07:11;14.40;;;3.28;;
31760;SDS011;18335;51.486;7.562;2024-02-21T13:09:39;18.23;;;3.85;;
31760;SDS011;18335;51.486;7.562;2024-02-21T13:12:07;8.95;;;3.20;;
31760;SDS011;18335;51.486;7.562;2024-02-21T13:14:34;12.05;;;3.70;;
31760;SDS011;18335;51.486;7.562;2024-02-21T13:17:02;13.43;;;3.70;;
31760;SDS011;18335;51.486;7.562;2024-02-21T13:19:28;16.38;;;4.35;;
31760;SDS011;18335;51.486;7.562;2024-02-21T13:21:55;13.35;;;3.50;;
31760;SDS011;18335;51.486;7.562;2024-02-21T13:24:22;12.30;;;3.55;;
31760;SDS011;18335;51.486;7.562;2024-02-21T13:26:50;15.30;;;4.13;;
31760;SDS011;18335;51.486;7.562;2024-02-21T13:29:16;11.20;;;2.63;;
31760;SDS011;18335;51.486;7.562;2024-02-21T13:31:43;15.15;;;3.55;;
31760;SDS011;18335;51.486;7.562;2024-02-21T13:34:10;15.50;;;3.67;;
31760;SDS011;18335;51.486;7.562;2024-02-21T13:36:37;19.45;;;5.22;;
31760;SDS011;18335;51.486;7.562;2024-02-21T13:39:04;12.45;;;3.60;;
31760;SDS011;18335;51.486;7.562;2024-02-21T13:41:31;14.27;;;3.67;;
31760;SDS011;18335;51.486;7.562;2024-02-21T13:44:00;12.30;;;3.58;;
31760;SDS011;18335;51.486;7.562;2024-02-21T13:46:27;18.40;;;3.20;;
31760;SDS011;18335;51.486;7.562;2024-02-21T13:48:54;10.85;;;4.10;;
31760;SDS011;18335;51.486;7.562;2024-02-21T13:51:30;16.30;;;3.60;;
31760;SDS011;18335;51.486;7.562;2024-02-21T13:53:57;10.80;;;3.15;;
31760;SDS011;18335;51.486;7.562;2024-02-21T13:56:24;11.10;;;3.58;;
31760;SDS011;18335;51.486;7.562;2024-02-21T13:58:52;12.52;;;2.65;;
31760;SDS011;18335;51.486;7.562;2024-02-21T14:01:20;12.05;;;2.95;;
31760;SDS011;18335;51.486;7.562;2024-02-21T14:03:47;11.45;;;3.30;;
31760;SDS011;18335;51.486;7.562;2024-02-21T14:06:13;12.45;;;3.67;;
31760;SDS011;18335;51.486;7.562;2024-02-21T14:08:40;13.45;;;3.67;;
31760;SDS011;18335;51.486;7.562;2024-02-21T14:11:07;10.00;;;3.72;;
31760;SDS011;18335;51.486;7.562;2024-02-21T14:13:33;15.73;;;4.22;;
31760;SDS011;18335;51.486;7.562;2024-02-21T14:16:00;12.48;;;3.15;;
31760;SDS011;18335;51.486;7.562;2024-02-21T14:18:28;14.35;;;3.65;;
31760;SDS011;18335;51.486;7.562;2024-02-21T14:20:55;16.40;;;3.95;;
31760;SDS011;18335;51.486;7.562;2024-02-21T14:23:22;9.77;;;3.25;;
31760;SDS011;18335;51.486;7.562;2024-02-21T14:25:49;10.63;;;3.33;;
31760;SDS011;18335;51.486;7.562;2024-02-21T14:28:15;10.10;;;3.35;;
31760;SDS011;18335;51.486;7.562;2024-02-21T14:30:43;10.80;;;3.42;;
31760;SDS011;18335;51.486;7.562;2024-02-21T14:33:10;13.27;;;4.30;;
31760;SDS011;18335;51.486;7.562;2024-02-21T14:35:38;14.40;;;3.42;;
31760;SDS011;18335;51.486;7.562;2024-02-21T14:38:05;11.05;;;3.72;;